sensor_id;sensor_type;location;lat;lon;timestamp;P1;durP1;ratioP1;P2;durP2;ratioP2
21168;SDS011;10742;51.816;8.662;2022-11-20T00:02:52;9.73;;;4.03;;
21168;SDS011;10742;51.816;8.662;2022-11-20T00:06:17;8.10;;;3.73;;
21168;SDS011;10742;51.816;8.662;2022-11-20T00:09:39;9.27;;;3.90;;
21168;SDS011;10742;51.816;8.662;2022-11-20T00:13:00;7.53;;;3.43;;
21168;SDS011;10742;51.816;8.662;2022-11-20T00:16:22;8.33;;;3.90;;
21168;SDS011;10742;51.816;8.662;2022-11-20T00:19:45;6.93;;;3.50;;
21168;SDS011;10742;51.816;8.662;2022-11-20T00:23:06;8.50;;;3.57;;
21168;SDS011;10742;51.816;8.662;2022-11-20T00:26:27;10.00;;;3.67;;
21168;SDS011;10742;51.816;8.662;2022-11-20T00:29:48;13.97;;;4.40;;
21168;SDS011;10742;51.816;8.662;2022-11-20T00:33:10;11.73;;;4.10;;
21168;SDS011;10742;51.816;8.662;2022-11-20T00:36:32;7.30;;;3.60;;
21168;SDS011;10742;51.816;8.662;2022-11-20T00:39:54;9.60;;;3.40;;
21168;SDS011;10742;51.816;8.662;2022-11-20T00:43:15;6.83;;;3.20;;
21168;SDS011;10742;51.816;8.662;2022-11-20T00:46:36;4.97;;;2.73;;
21168;SDS011;10742;51.816;8.662;2022-11-20T00:49:57;9.53;;;3.53;;
21168;SDS011;10742;51.816;8.662;2022-11-20T00:53:18;5.43;;;2.93;;
21168;SDS011;10742;51.816;8.662;2022-11-20T00:56:40;6.07;;;2.70;;
21168;SDS011;10742;51.816;8.662;2022-11-20T01:00:01;4.97;;;2.60;;
21168;SDS011;10742;51.816;8.662;2022-11-20T01:03:23;5.47;;;2.63;;
21168;SDS011;10742;51.816;8.662;2022-11-20T01:06:46;8.47;;;2.77;;
21168;SDS011;10742;51.816;8.662;2022-11-20T01:10:07;5.97;;;2.93;;
21168;SDS011;10742;51.816;8.662;2022-11-20T01:13:29;9.50;;;3.20;;
21168;SDS011;10742;51.816;8.662;2022-11-20T01:17:00;5.03;;;2.80;;
21168;SDS011;10742;51.816;8.662;2022-11-20T01:20:21;7.87;;;3.27;;
21168;SDS011;10742;51.816;8.662;2022-11-20T01:23:43;8.20;;;3.50;;
21168;SDS011;10742;51.816;8.662;2022-11-20T01:27:04;6.47;;;3.00;;
21168;SDS011;10742;51.816;8.662;2022-11-20T01:30:25;6.67;;;3.20;;
21168;SDS011;10742;51.816;8.662;2022-11-20T01:33:47;9.57;;;2.90;;
21168;SDS011;10742;51.816;8.662;2022-11-20T01:37:09;8.03;;;3.07;;
21168;SDS011;10742;51.816;8.662;2022-11-20T01:40:30;6.27;;;2.90;;
21168;SDS011;10742;51.816;8.662;2022-11-20T01:43:51;5.90;;;3.00;;
21168;SDS011;10742;51.816;8.662;2022-11-20T01:47:13;9.67;;;3.03;;
21168;SDS011;10742;51.816;8.662;2022-11-20T01:50:40;10.77;;;3.50;;
21168;SDS011;10742;51.816;8.662;2022-11-20T01:54:04;6.67;;;3.10;;
21168;SDS011;10742;51.816;8.662;2022-11-20T01:57:28;7.67;;;3.40;;
21168;SDS011;10742;51.816;8.662;2022-11-20T02:00:52;10.07;;;3.50;;
21168;SDS011;10742;51.816;8.662;2022-11-20T02:04:13;6.10;;;3.00;;
21168;SDS011;10742;51.816;8.662;2022-11-20T02:07:35;14.13;;;5.20;;
21168;SDS011;10742;51.816;8.662;2022-11-20T02:10:57;20.77;;;6.87;;
21168;SDS011;10742;51.816;8.662;2022-11-20T02:14:18;20.73;;;6.33;;
21168;SDS011;10742;51.816;8.662;2022-11-20T02:17:40;10.23;;;3.67;;
21168;SDS011;10742;51.816;8.662;2022-11-20T02:21:46;9.20;;;3.23;;
21168;SDS011;10742;51.816;8.662;2022-11-20T02:25:01;7.50;;;2.97;;
21168;SDS011;10742;51.816;8.662;2022-11-20T02:28:24;10.47;;;3.30;;
21168;SDS011;10742;51.816;8.662;2022-11-20T02:31:45;4.30;;;2.80;;
21168;SDS011;10742;51.816;8.662;2022-11-20T02:35:35;4.97;;;2.70;;
21168;SDS011;10742;51.816;8.662;2022-11-20T02:38:47;10.30;;;2.90;;
21168;SDS011;10742;51.816;8.662;2022-11-20T02:42:10;8.13;;;3.10;;
21168;SDS011;10742;51.816;8.662;2022-11-20T02:45:31;10.27;;;3.80;;
21168;SDS011;10742;51.816;8.662;2022-11-20T02:48:52;10.47;;;3.30;;
21168;SDS011;10742;51.816;8.662;2022-11-20T02:52:13;10.43;;;3.73;;
21168;SDS011;10742;51.816;8.662;2022-11-20T02:55:35;9.40;;;3.83;;
21168;SDS011;10742;51.816;8.662;2022-11-20T02:58:56;9.63;;;3.97;;
21168;SDS011;10742;51.816;8.662;2022-11-20T03:02:17;7.47;;;3.03;;
21168;SDS011;10742;51.816;8.662;2022-11-20T03:05:38;10.27;;;3.43;;
21168;SDS011;10742;51.816;8.662;2022-11-20T03:08:59;5.47;;;2.87;;
21168;SDS011;10742;51.816;8.662;2022-11-20T03:12:20;7.77;;;2.90;;
21168;SDS011;10742;51.816;8.662;2022-11-20T03:15:41;9.10;;;2.70;;
21168;SDS011;10742;51.816;8.662;2022-11-20T03:19:03;8.17;;;3.10;;
21168;SDS011;10742;51.816;8.662;2022-11-20T03:22:24;10.27;;;3.47;;
21168;SDS011;10742;51.816;8.662;2022-11-20T03:25:45;10.00;;;3.17;;
21168;SDS011;10742;51.816;8.662;2022-11-20T03:29:06;6.93;;;3.20;;
21168;SDS011;10742;51.816;8.662;2022-11-20T03:32:27;8.37;;;3.30;;
21168;SDS011;10742;51.816;8.662;2022-11-20T03:35:49;7.67;;;3.50;;
21168;SDS011;10742;51.816;8.662;2022-11-20T03:39:10;6.73;;;2.93;;
21168;SDS011;10742;51.816;8.662;2022-11-20T03:42:31;7.00;;;3.50;;
21168;SDS011;10742;51.816;8.662;2022-11-20T03:46:07;8.87;;;3.53;;
21168;SDS011;10742;51.816;8.662;2022-11-20T03:49:28;9.80;;;3.73;;
21168;SDS011;10742;51.816;8.662;2022-11-20T03:52:49;7.57;;;3.23;;
21168;SDS011;10742;51.816;8.662;2022-11-20T03:56:11;7.20;;;3.30;;
21168;SDS011;10742;51.816;8.662;2022-11-20T03:59:34;7.83;;;3.20;;
21168;SDS011;10742;51.816;8.662;2022-11-20T04:02:57;10.07;;;3.23;;
21168;SDS011;10742;51.816;8.662;2022-11-20T04:06:27;7.47;;;3.03;;
21168;SDS011;10742;51.816;8.662;2022-11-20T04:09:49;9.90;;;3.60;;
21168;SDS011;10742;51.816;8.662;2022-11-20T04:13:10;8.87;;;3.50;;
21168;SDS011;10742;51.816;8.662;2022-11-20T04:16:33;9.87;;;3.47;;
21168;SDS011;10742;51.816;8.662;2022-11-20T04:19:55;7.53;;;3.37;;
21168;SDS011;10742;51.816;8.662;2022-11-20T04:23:16;8.33;;;3.07;;
21168;SDS011;10742;51.816;8.662;2022-11-20T04:26:37;6.20;;;3.17;;
21168;SDS011;10742;51.816;8.662;2022-11-20T04:29:59;15.10;;;4.63;;
21168;SDS011;10742;51.816;8.662;2022-11-20T04:33:20;13.87;;;4.83;;
21168;SDS011;10742;51.816;8.662;2022-11-20T04:36:41;12.17;;;4.67;;
21168;SDS011;10742;51.816;8.662;2022-11-20T04:40:03;21.57;;;6.33;;
21168;SDS011;10742;51.816;8.662;2022-11-20T04:43:24;16.07;;;5.00;;
21168;SDS011;10742;51.816;8.662;2022-11-20T04:46:45;17.67;;;5.90;;
21168;SDS011;10742;51.816;8.662;2022-11-20T04:50:08;12.47;;;4.63;;
21168;SDS011;10742;51.816;8.662;2022-11-20T04:53:29;11.53;;;4.07;;
21168;SDS011;10742;51.816;8.662;2022-11-20T04:56:51;6.80;;;3.13;;
21168;SDS011;10742;51.816;8.662;2022-11-20T05:00:12;6.10;;;3.33;;
21168;SDS011;10742;51.816;8.662;2022-11-20T05:03:34;6.40;;;2.97;;
21168;SDS011;10742;51.816;8.662;2022-11-20T05:07:00;5.10;;;2.73;;
21168;SDS011;10742;51.816;8.662;2022-11-20T05:10:27;6.90;;;3.03;;
21168;SDS011;10742;51.816;8.662;2022-11-20T05:13:49;9.87;;;4.07;;
21168;SDS011;10742;51.816;8.662;2022-11-20T05:17:11;11.10;;;3.87;;
21168;SDS011;10742;51.816;8.662;2022-11-20T05:20:33;8.03;;;3.23;;
21168;SDS011;10742;51.816;8.662;2022-11-20T05:23:54;8.37;;;3.50;;
21168;SDS011;10742;51.816;8.662;2022-11-20T05:27:15;5.90;;;3.00;;
21168;SDS011;10742;51.816;8.662;2022-11-20T05:30:36;5.87;;;2.93;;
21168;SDS011;10742;51.816;8.662;2022-11-20T05:33:57;7.23;;;3.00;;
21168;SDS011;10742;51.816;8.662;2022-11-20T05:37:18;4.50;;;2.60;;
21168;SDS011;10742;51.816;8.662;2022-11-20T05:40:39;6.10;;;2.67;;
21168;SDS011;10742;51.816;8.662;2022-11-20T05:44:00;8.93;;;3.00;;
21168;SDS011;10742;51.816;8.662;2022-11-20T05:47:22;6.40;;;3.00;;
21168;SDS011;10742;51.816;8.662;2022-11-20T05:50:43;10.77;;;3.83;;
21168;SDS011;10742;51.816;8.662;2022-11-20T05:54:04;9.43;;;3.87;;
21168;SDS011;10742;51.816;8.662;2022-11-20T05:57:25;7.00;;;3.23;;
21168;SDS011;10742;51.816;8.662;2022-11-20T06:00:46;8.83;;;3.37;;
21168;SDS011;10742;51.816;8.662;2022-11-20T06:04:07;8.70;;;3.90;;
21168;SDS011;10742;51.816;8.662;2022-11-20T06:07:29;7.43;;;3.27;;
21168;SDS011;10742;51.816;8.662;2022-11-20T06:10:50;10.87;;;3.60;;
21168;SDS011;10742;51.816;8.662;2022-11-20T06:14:11;10.70;;;3.90;;
21168;SDS011;10742;51.816;8.662;2022-11-20T06:17:32;9.37;;;3.70;;
21168;SDS011;10742;51.816;8.662;2022-11-20T06:21:04;9.10;;;3.80;;
21168;SDS011;10742;51.816;8.662;2022-11-20T06:24:35;8.03;;;3.53;;
21168;SDS011;10742;51.816;8.662;2022-11-20T06:27:56;9.20;;;3.67;;
21168;SDS011;10742;51.816;8.662;2022-11-20T06:31:19;11.13;;;4.00;;
21168;SDS011;10742;51.816;8.662;2022-11-20T06:34:42;11.13;;;4.50;;
21168;SDS011;10742;51.816;8.662;2022-11-20T06:38:04;11.63;;;4.20;;
21168;SDS011;10742;51.816;8.662;2022-11-20T06:41:25;10.43;;;3.90;;
21168;SDS011;10742;51.816;8.662;2022-11-20T06:44:46;9.00;;;3.73;;
21168;SDS011;10742;51.816;8.662;2022-11-20T06:48:07;10.50;;;4.03;;
21168;SDS011;10742;51.816;8.662;2022-11-20T06:51:28;10.13;;;3.90;;
21168;SDS011;10742;51.816;8.662;2022-11-20T06:54:49;7.43;;;3.43;;
21168;SDS011;10742;51.816;8.662;2022-11-20T06:58:11;8.97;;;3.67;;
21168;SDS011;10742;51.816;8.662;2022-11-20T07:01:33;8.20;;;3.73;;
21168;SDS011;10742;51.816;8.662;2022-11-20T07:04:54;8.93;;;3.73;;
21168;SDS011;10742;51.816;8.662;2022-11-20T07:08:15;9.50;;;3.90;;
21168;SDS011;10742;51.816;8.662;2022-11-20T07:11:36;9.53;;;4.27;;
21168;SDS011;10742;51.816;8.662;2022-11-20T07:14:57;9.63;;;3.80;;
21168;SDS011;10742;51.816;8.662;2022-11-20T07:18:18;10.13;;;3.57;;
21168;SDS011;10742;51.816;8.662;2022-11-20T07:21:39;11.10;;;4.23;;
21168;SDS011;10742;51.816;8.662;2022-11-20T07:25:00;10.87;;;4.10;;
21168;SDS011;10742;51.816;8.662;2022-11-20T07:28:22;9.07;;;4.00;;
21168;SDS011;10742;51.816;8.662;2022-11-20T07:31:43;12.93;;;4.50;;
21168;SDS011;10742;51.816;8.662;2022-11-20T07:35:04;13.07;;;4.63;;
21168;SDS011;10742;51.816;8.662;2022-11-20T07:38:26;12.67;;;4.93;;
21168;SDS011;10742;51.816;8.662;2022-11-20T07:41:47;11.87;;;4.43;;
21168;SDS011;10742;51.816;8.662;2022-11-20T07:45:09;13.07;;;4.43;;
21168;SDS011;10742;51.816;8.662;2022-11-20T07:48:31;13.97;;;5.20;;
21168;SDS011;10742;51.816;8.662;2022-11-20T07:51:52;17.30;;;4.90;;
21168;SDS011;10742;51.816;8.662;2022-11-20T07:55:14;14.20;;;4.77;;
21168;SDS011;10742;51.816;8.662;2022-11-20T07:58:35;11.53;;;4.60;;
21168;SDS011;10742;51.816;8.662;2022-11-20T08:01:56;14.17;;;4.90;;
21168;SDS011;10742;51.816;8.662;2022-11-20T08:05:18;10.23;;;4.17;;
21168;SDS011;10742;51.816;8.662;2022-11-20T08:08:39;14.63;;;5.00;;
21168;SDS011;10742;51.816;8.662;2022-11-20T08:12:02;13.50;;;5.00;;
21168;SDS011;10742;51.816;8.662;2022-11-20T08:15:47;19.20;;;5.20;;
21168;SDS011;10742;51.816;8.662;2022-11-20T08:19:10;15.83;;;4.87;;
21168;SDS011;10742;51.816;8.662;2022-11-20T08:22:32;13.80;;;5.20;;
21168;SDS011;10742;51.816;8.662;2022-11-20T08:25:53;12.03;;;4.93;;
21168;SDS011;10742;51.816;8.662;2022-11-20T08:29:14;12.90;;;5.20;;
21168;SDS011;10742;51.816;8.662;2022-11-20T08:32:35;13.73;;;4.70;;
21168;SDS011;10742;51.816;8.662;2022-11-20T08:35:58;12.47;;;4.60;;
21168;SDS011;10742;51.816;8.662;2022-11-20T08:39:21;11.57;;;4.63;;
21168;SDS011;10742;51.816;8.662;2022-11-20T08:42:49;11.60;;;4.93;;
21168;SDS011;10742;51.816;8.662;2022-11-20T08:46:11;11.93;;;4.93;;
21168;SDS011;10742;51.816;8.662;2022-11-20T08:49:32;12.53;;;4.70;;
21168;SDS011;10742;51.816;8.662;2022-11-20T08:52:54;11.00;;;4.77;;
21168;SDS011;10742;51.816;8.662;2022-11-20T08:56:16;12.37;;;4.80;;
21168;SDS011;10742;51.816;8.662;2022-11-20T08:59:37;15.97;;;6.43;;
21168;SDS011;10742;51.816;8.662;2022-11-20T09:03:19;35.67;;;15.03;;
21168;SDS011;10742;51.816;8.662;2022-11-20T09:06:41;15.90;;;5.53;;
21168;SDS011;10742;51.816;8.662;2022-11-20T09:10:02;17.87;;;6.17;;
21168;SDS011;10742;51.816;8.662;2022-11-20T09:13:41;16.90;;;6.10;;
21168;SDS011;10742;51.816;8.662;2022-11-20T09:17:02;15.77;;;5.73;;
21168;SDS011;10742;51.816;8.662;2022-11-20T09:20:24;12.90;;;5.17;;
21168;SDS011;10742;51.816;8.662;2022-11-20T09:23:45;20.00;;;6.77;;
21168;SDS011;10742;51.816;8.662;2022-11-20T09:27:07;19.80;;;6.90;;
21168;SDS011;10742;51.816;8.662;2022-11-20T09:30:28;23.60;;;7.73;;
21168;SDS011;10742;51.816;8.662;2022-11-20T09:33:50;15.67;;;6.57;;
21168;SDS011;10742;51.816;8.662;2022-11-20T09:37:11;16.20;;;6.77;;
21168;SDS011;10742;51.816;8.662;2022-11-20T09:40:34;19.97;;;7.80;;
21168;SDS011;10742;51.816;8.662;2022-11-20T09:47:46;16.77;;;6.83;;
21168;SDS011;10742;51.816;8.662;2022-11-20T09:54:50;19.70;;;7.50;;
21168;SDS011;10742;51.816;8.662;2022-11-20T09:58:17;18.93;;;6.30;;
21168;SDS011;10742;51.816;8.662;2022-11-20T10:01:49;15.43;;;6.20;;
21168;SDS011;10742;51.816;8.662;2022-11-20T10:05:11;18.33;;;6.87;;
21168;SDS011;10742;51.816;8.662;2022-11-20T10:08:43;13.17;;;5.80;;
21168;SDS011;10742;51.816;8.662;2022-11-20T10:12:25;16.43;;;6.53;;
21168;SDS011;10742;51.816;8.662;2022-11-20T10:20:19;16.27;;;5.87;;
21168;SDS011;10742;51.816;8.662;2022-11-20T10:24:04;16.40;;;6.10;;
21168;SDS011;10742;51.816;8.662;2022-11-20T10:31:37;20.43;;;7.63;;
21168;SDS011;10742;51.816;8.662;2022-11-20T10:35:01;25.50;;;9.13;;
21168;SDS011;10742;51.816;8.662;2022-11-20T10:38:35;30.83;;;12.93;;
21168;SDS011;10742;51.816;8.662;2022-11-20T10:41:57;30.73;;;10.90;;
21168;SDS011;10742;51.816;8.662;2022-11-20T10:48:45;23.50;;;9.53;;
21168;SDS011;10742;51.816;8.662;2022-11-20T10:55:50;16.77;;;6.87;;
21168;SDS011;10742;51.816;8.662;2022-11-20T10:59:32;18.90;;;7.50;;
21168;SDS011;10742;51.816;8.662;2022-11-20T11:03:29;18.20;;;6.63;;
21168;SDS011;10742;51.816;8.662;2022-11-20T11:06:52;19.07;;;7.30;;
21168;SDS011;10742;51.816;8.662;2022-11-20T11:11:02;20.47;;;7.07;;
21168;SDS011;10742;51.816;8.662;2022-11-20T11:14:04;19.63;;;7.10;;
21168;SDS011;10742;51.816;8.662;2022-11-20T11:17:33;18.40;;;7.17;;
21168;SDS011;10742;51.816;8.662;2022-11-20T11:20:55;20.03;;;7.87;;
21168;SDS011;10742;51.816;8.662;2022-11-20T11:24:22;20.13;;;7.37;;
21168;SDS011;10742;51.816;8.662;2022-11-20T11:28:01;19.73;;;7.30;;
21168;SDS011;10742;51.816;8.662;2022-11-20T11:31:25;18.77;;;7.47;;
21168;SDS011;10742;51.816;8.662;2022-11-20T11:35:05;22.90;;;8.07;;
21168;SDS011;10742;51.816;8.662;2022-11-20T11:38:34;22.13;;;7.97;;
21168;SDS011;10742;51.816;8.662;2022-11-20T11:42:01;19.60;;;8.20;;
21168;SDS011;10742;51.816;8.662;2022-11-20T11:45:23;22.00;;;8.30;;
21168;SDS011;10742;51.816;8.662;2022-11-20T11:48:54;21.80;;;7.83;;
21168;SDS011;10742;51.816;8.662;2022-11-20T11:52:17;21.37;;;7.73;;
21168;SDS011;10742;51.816;8.662;2022-11-20T11:55:44;20.43;;;7.90;;
21168;SDS011;10742;51.816;8.662;2022-11-20T11:59:10;19.77;;;8.03;;
21168;SDS011;10742;51.816;8.662;2022-11-20T12:06:06;21.37;;;8.07;;
21168;SDS011;10742;51.816;8.662;2022-11-20T12:09:34;22.00;;;8.30;;
21168;SDS011;10742;51.816;8.662;2022-11-20T12:13:14;25.73;;;11.10;;
21168;SDS011;10742;51.816;8.662;2022-11-20T12:16:39;25.57;;;9.97;;
21168;SDS011;10742;51.816;8.662;2022-11-20T12:20:00;24.60;;;9.67;;
21168;SDS011;10742;51.816;8.662;2022-11-20T12:23:27;21.53;;;8.87;;
21168;SDS011;10742;51.816;8.662;2022-11-20T12:46:07;22.53;;;9.43;;
21168;SDS011;10742;51.816;8.662;2022-11-20T12:49:42;24.17;;;10.30;;
21168;SDS011;10742;51.816;8.662;2022-11-20T12:53:23;25.20;;;10.13;;
21168;SDS011;10742;51.816;8.662;2022-11-20T13:00:22;24.03;;;9.70;;
21168;SDS011;10742;51.816;8.662;2022-11-20T13:03:47;25.13;;;9.83;;
21168;SDS011;10742;51.816;8.662;2022-11-20T13:07:14;28.80;;;9.43;;
21168;SDS011;10742;51.816;8.662;2022-11-20T13:10:49;24.60;;;10.10;;
21168;SDS011;10742;51.816;8.662;2022-11-20T13:14:32;23.87;;;9.53;;
21168;SDS011;10742;51.816;8.662;2022-11-20T13:17:59;26.57;;;10.13;;
21168;SDS011;10742;51.816;8.662;2022-11-20T13:21:23;34.60;;;13.80;;
21168;SDS011;10742;51.816;8.662;2022-11-20T13:25:00;29.77;;;12.00;;
21168;SDS011;10742;51.816;8.662;2022-11-20T13:31:46;25.40;;;11.60;;
21168;SDS011;10742;51.816;8.662;2022-11-20T13:35:08;30.40;;;11.87;;
21168;SDS011;10742;51.816;8.662;2022-11-20T13:38:49;27.63;;;11.53;;
21168;SDS011;10742;51.816;8.662;2022-11-20T13:45:33;25.77;;;9.93;;
21168;SDS011;10742;51.816;8.662;2022-11-20T13:49:05;23.67;;;9.80;;
21168;SDS011;10742;51.816;8.662;2022-11-20T13:56:24;24.63;;;9.23;;
21168;SDS011;10742;51.816;8.662;2022-11-20T14:00:03;22.97;;;9.67;;
21168;SDS011;10742;51.816;8.662;2022-11-20T14:03:33;28.00;;;11.10;;
21168;SDS011;10742;51.816;8.662;2022-11-20T14:07:15;27.20;;;9.60;;
21168;SDS011;10742;51.816;8.662;2022-11-20T14:10:38;37.23;;;15.87;;
21168;SDS011;10742;51.816;8.662;2022-11-20T14:17:34;35.23;;;13.57;;
21168;SDS011;10742;51.816;8.662;2022-11-20T14:20:59;27.80;;;11.83;;
21168;SDS011;10742;51.816;8.662;2022-11-20T14:24:22;28.03;;;12.23;;
21168;SDS011;10742;51.816;8.662;2022-11-20T14:27:58;23.73;;;9.67;;
21168;SDS011;10742;51.816;8.662;2022-11-20T14:31:22;22.60;;;8.90;;
21168;SDS011;10742;51.816;8.662;2022-11-20T14:34:46;26.77;;;10.93;;
21168;SDS011;10742;51.816;8.662;2022-11-20T14:38:11;25.67;;;10.57;;
21168;SDS011;10742;51.816;8.662;2022-11-20T14:41:35;27.57;;;11.00;;
21168;SDS011;10742;51.816;8.662;2022-11-20T14:44:57;27.47;;;10.60;;
21168;SDS011;10742;51.816;8.662;2022-11-20T14:48:21;30.60;;;13.10;;
21168;SDS011;10742;51.816;8.662;2022-11-20T14:51:46;31.33;;;12.93;;
21168;SDS011;10742;51.816;8.662;2022-11-20T14:55:53;26.33;;;11.40;;
21168;SDS011;10742;51.816;8.662;2022-11-20T14:59:22;23.53;;;9.60;;
21168;SDS011;10742;51.816;8.662;2022-11-20T15:02:47;22.20;;;8.87;;
21168;SDS011;10742;51.816;8.662;2022-11-20T15:06:11;23.67;;;8.70;;
21168;SDS011;10742;51.816;8.662;2022-11-20T15:09:33;22.07;;;8.33;;
21168;SDS011;10742;51.816;8.662;2022-11-20T15:12:54;21.57;;;8.83;;
21168;SDS011;10742;51.816;8.662;2022-11-20T15:16:36;25.93;;;9.27;;
21168;SDS011;10742;51.816;8.662;2022-11-20T15:19:58;22.47;;;8.33;;
21168;SDS011;10742;51.816;8.662;2022-11-20T15:23:22;20.47;;;7.80;;
21168;SDS011;10742;51.816;8.662;2022-11-20T15:26:44;19.37;;;7.97;;
21168;SDS011;10742;51.816;8.662;2022-11-20T15:30:13;19.40;;;7.43;;
21168;SDS011;10742;51.816;8.662;2022-11-20T15:33:36;22.00;;;8.10;;
21168;SDS011;10742;51.816;8.662;2022-11-20T15:36:57;18.80;;;7.53;;
21168;SDS011;10742;51.816;8.662;2022-11-20T15:40:18;19.37;;;7.60;;
21168;SDS011;10742;51.816;8.662;2022-11-20T15:43:39;19.67;;;7.53;;
21168;SDS011;10742;51.816;8.662;2022-11-20T15:47:01;18.20;;;6.87;;
21168;SDS011;10742;51.816;8.662;2022-11-20T15:50:22;16.10;;;6.57;;
21168;SDS011;10742;51.816;8.662;2022-11-20T15:53:49;13.93;;;6.03;;
21168;SDS011;10742;51.816;8.662;2022-11-20T15:57:10;15.93;;;6.10;;
21168;SDS011;10742;51.816;8.662;2022-11-20T16:00:33;13.87;;;6.03;;
21168;SDS011;10742;51.816;8.662;2022-11-20T16:03:55;14.43;;;6.00;;
21168;SDS011;10742;51.816;8.662;2022-11-20T16:07:16;17.63;;;6.90;;
21168;SDS011;10742;51.816;8.662;2022-11-20T16:10:37;16.03;;;6.27;;
21168;SDS011;10742;51.816;8.662;2022-11-20T16:13:59;12.57;;;5.27;;
21168;SDS011;10742;51.816;8.662;2022-11-20T16:17:39;13.00;;;5.33;;
21168;SDS011;10742;51.816;8.662;2022-11-20T16:21:02;14.97;;;5.63;;
21168;SDS011;10742;51.816;8.662;2022-11-20T16:24:24;14.50;;;5.93;;
21168;SDS011;10742;51.816;8.662;2022-11-20T16:27:45;33.70;;;16.57;;
21168;SDS011;10742;51.816;8.662;2022-11-20T16:31:13;26.13;;;12.00;;
21168;SDS011;10742;51.816;8.662;2022-11-20T16:34:37;18.43;;;7.83;;
21168;SDS011;10742;51.816;8.662;2022-11-20T16:37:58;22.80;;;10.97;;
21168;SDS011;10742;51.816;8.662;2022-11-20T16:41:19;21.63;;;9.83;;
21168;SDS011;10742;51.816;8.662;2022-11-20T16:44:40;23.47;;;10.17;;
21168;SDS011;10742;51.816;8.662;2022-11-20T16:48:02;22.27;;;11.53;;
21168;SDS011;10742;51.816;8.662;2022-11-20T16:51:23;17.30;;;7.77;;
21168;SDS011;10742;51.816;8.662;2022-11-20T16:54:46;18.83;;;7.77;;
21168;SDS011;10742;51.816;8.662;2022-11-20T16:58:07;20.80;;;9.17;;
21168;SDS011;10742;51.816;8.662;2022-11-20T17:01:29;17.50;;;6.97;;
21168;SDS011;10742;51.816;8.662;2022-11-20T17:04:51;18.23;;;6.93;;
21168;SDS011;10742;51.816;8.662;2022-11-20T17:08:12;18.80;;;6.57;;
21168;SDS011;10742;51.816;8.662;2022-11-20T17:11:34;17.70;;;6.97;;
21168;SDS011;10742;51.816;8.662;2022-11-20T17:14:55;17.97;;;6.20;;
21168;SDS011;10742;51.816;8.662;2022-11-20T17:18:16;27.83;;;9.53;;
21168;SDS011;10742;51.816;8.662;2022-11-20T17:21:38;26.27;;;8.13;;
21168;SDS011;10742;51.816;8.662;2022-11-20T17:24:59;27.63;;;9.23;;
21168;SDS011;10742;51.816;8.662;2022-11-20T17:28:21;32.73;;;10.87;;
21168;SDS011;10742;51.816;8.662;2022-11-20T17:31:43;25.67;;;8.97;;
21168;SDS011;10742;51.816;8.662;2022-11-20T17:35:05;28.13;;;10.20;;
21168;SDS011;10742;51.816;8.662;2022-11-20T17:38:26;20.73;;;7.40;;
21168;SDS011;10742;51.816;8.662;2022-11-20T17:41:48;21.47;;;7.37;;
21168;SDS011;10742;51.816;8.662;2022-11-20T17:45:30;20.60;;;7.13;;
21168;SDS011;10742;51.816;8.662;2022-11-20T17:48:51;15.13;;;6.13;;
21168;SDS011;10742;51.816;8.662;2022-11-20T17:52:12;17.83;;;6.33;;
21168;SDS011;10742;51.816;8.662;2022-11-20T17:55:33;22.67;;;7.77;;
21168;SDS011;10742;51.816;8.662;2022-11-20T17:59:15;20.13;;;7.27;;
21168;SDS011;10742;51.816;8.662;2022-11-20T18:02:38;19.73;;;7.13;;
21168;SDS011;10742;51.816;8.662;2022-11-20T18:09:38;20.77;;;7.90;;
21168;SDS011;10742;51.816;8.662;2022-11-20T18:12:59;21.27;;;7.87;;
21168;SDS011;10742;51.816;8.662;2022-11-20T18:16:20;18.93;;;7.13;;
21168;SDS011;10742;51.816;8.662;2022-11-20T18:19:42;19.77;;;7.50;;
21168;SDS011;10742;51.816;8.662;2022-11-20T18:23:14;21.80;;;8.30;;
21168;SDS011;10742;51.816;8.662;2022-11-20T18:26:36;27.30;;;9.20;;
21168;SDS011;10742;51.816;8.662;2022-11-20T18:30:01;24.27;;;7.87;;
21168;SDS011;10742;51.816;8.662;2022-11-20T18:33:22;19.63;;;6.97;;
21168;SDS011;10742;51.816;8.662;2022-11-20T18:36:47;19.90;;;7.60;;
21168;SDS011;10742;51.816;8.662;2022-11-20T18:40:09;22.10;;;7.70;;
21168;SDS011;10742;51.816;8.662;2022-11-20T18:43:31;22.07;;;7.77;;
21168;SDS011;10742;51.816;8.662;2022-11-20T18:47:12;17.73;;;7.07;;
21168;SDS011;10742;51.816;8.662;2022-11-20T18:50:44;20.43;;;8.10;;
21168;SDS011;10742;51.816;8.662;2022-11-20T18:54:05;22.13;;;8.03;;
21168;SDS011;10742;51.816;8.662;2022-11-20T18:57:27;20.93;;;8.20;;
21168;SDS011;10742;51.816;8.662;2022-11-20T19:00:49;23.13;;;8.53;;
21168;SDS011;10742;51.816;8.662;2022-11-20T19:04:12;23.87;;;8.70;;
21168;SDS011;10742;51.816;8.662;2022-11-20T19:07:34;22.23;;;8.37;;
21168;SDS011;10742;51.816;8.662;2022-11-20T19:11:03;22.93;;;8.37;;
21168;SDS011;10742;51.816;8.662;2022-11-20T19:14:25;22.23;;;8.77;;
21168;SDS011;10742;51.816;8.662;2022-11-20T19:17:46;25.23;;;9.00;;
21168;SDS011;10742;51.816;8.662;2022-11-20T19:21:08;23.60;;;9.07;;
21168;SDS011;10742;51.816;8.662;2022-11-20T19:24:31;24.97;;;8.90;;
21168;SDS011;10742;51.816;8.662;2022-11-20T19:27:53;24.90;;;9.17;;
21168;SDS011;10742;51.816;8.662;2022-11-20T19:31:16;22.90;;;9.00;;
21168;SDS011;10742;51.816;8.662;2022-11-20T19:34:44;22.27;;;8.27;;
21168;SDS011;10742;51.816;8.662;2022-11-20T19:38:05;21.43;;;8.23;;
21168;SDS011;10742;51.816;8.662;2022-11-20T19:41:30;23.17;;;8.80;;
21168;SDS011;10742;51.816;8.662;2022-11-20T19:44:52;25.00;;;8.77;;
21168;SDS011;10742;51.816;8.662;2022-11-20T19:48:13;25.97;;;9.00;;
21168;SDS011;10742;51.816;8.662;2022-11-20T19:51:36;22.97;;;8.47;;
21168;SDS011;10742;51.816;8.662;2022-11-20T19:54:58;19.80;;;7.70;;
21168;SDS011;10742;51.816;8.662;2022-11-20T19:58:18;25.80;;;8.83;;
21168;SDS011;10742;51.816;8.662;2022-11-20T20:01:40;22.37;;;8.67;;
21168;SDS011;10742;51.816;8.662;2022-11-20T20:05:01;22.93;;;9.17;;
21168;SDS011;10742;51.816;8.662;2022-11-20T20:08:23;20.63;;;7.70;;
21168;SDS011;10742;51.816;8.662;2022-11-20T20:11:44;24.03;;;8.63;;
21168;SDS011;10742;51.816;8.662;2022-11-20T20:15:07;21.03;;;7.97;;
21168;SDS011;10742;51.816;8.662;2022-11-20T20:18:29;24.03;;;8.63;;
21168;SDS011;10742;51.816;8.662;2022-11-20T20:21:50;24.93;;;9.23;;
21168;SDS011;10742;51.816;8.662;2022-11-20T20:25:12;21.67;;;8.43;;
21168;SDS011;10742;51.816;8.662;2022-11-20T20:28:34;23.47;;;9.00;;
21168;SDS011;10742;51.816;8.662;2022-11-20T20:31:55;25.80;;;9.03;;
21168;SDS011;10742;51.816;8.662;2022-11-20T20:35:17;23.07;;;9.47;;
21168;SDS011;10742;51.816;8.662;2022-11-20T20:38:39;22.60;;;9.03;;
21168;SDS011;10742;51.816;8.662;2022-11-20T20:42:00;22.03;;;8.57;;
21168;SDS011;10742;51.816;8.662;2022-11-20T20:45:22;22.80;;;8.67;;
21168;SDS011;10742;51.816;8.662;2022-11-20T20:48:43;22.70;;;7.97;;
21168;SDS011;10742;51.816;8.662;2022-11-20T20:52:04;20.50;;;7.60;;
21168;SDS011;10742;51.816;8.662;2022-11-20T20:55:27;19.87;;;8.10;;
21168;SDS011;10742;51.816;8.662;2022-11-20T20:58:49;20.03;;;7.70;;
21168;SDS011;10742;51.816;8.662;2022-11-20T21:02:10;20.40;;;7.97;;
21168;SDS011;10742;51.816;8.662;2022-11-20T21:05:31;18.60;;;7.50;;
21168;SDS011;10742;51.816;8.662;2022-11-20T21:08:52;22.57;;;8.63;;
21168;SDS011;10742;51.816;8.662;2022-11-20T21:12:15;19.27;;;7.40;;
21168;SDS011;10742;51.816;8.662;2022-11-20T21:15:37;22.00;;;7.70;;
21168;SDS011;10742;51.816;8.662;2022-11-20T21:18:59;19.07;;;7.80;;
21168;SDS011;10742;51.816;8.662;2022-11-20T21:22:20;20.97;;;7.37;;